Latest Weather Observations for Bourke

IDN60801

Issued at 6:35 pm EDT Sunday 26 October 2014 (issued every 30 minutes, with the page automatically refreshed every 10 minutes)

About weather observations | Map of weather stations | Latest weather observations for NSW | Other Formats
Station Details ID: 048245 Name: BOURKE AIRPORT AWS Lat: -30.04 Lon: 145.95 Height: 107.3 m
Data from the previous 72 hours. | See also: Recent months at Bourke
Date/Time
EDT
Temp
°C
App
Temp
°C
Dew
Point
Rel
Hum
%
Delta-T
°C
Wind Press
QNH
hPa
Press
MSL
hPa
Rain
since 9 am
mm
Dir
 
Spd
km/h
Gust
km/h
Spd
kts
Gust
kts
26/06:30pm 38.2 32.2 1.3 10 19.1 SW 22 37 12 20 1008.4 1008.1 0.0
26/06:00pm 39.2 32.6 2.0 10 19.6 SW 26 39 14 21 1008.4 1008.1 0.0
26/05:30pm 39.8 34.0 2.5 10 19.8 SW 22 41 12 22 1008.2 1007.8 0.0
26/05:00pm 40.2 34.1 2.8 10 20.0 SW 24 35 13 19 1008.2 1007.8 0.0
26/04:30pm 40.5 34.2 1.5 9 20.5 WSW 24 43 13 23 1008.5 1008.2 0.0
26/04:00pm 40.4 33.7 1.4 9 20.4 WSW 26 44 14 24 1008.7 1008.4 0.0
26/03:30pm 40.2 33.5 1.3 9 20.3 WSW 26 37 14 20 1008.9 1008.6 0.0
26/03:13pm 40.3 32.5 1.4 9 20.4 WSW 32 50 17 27 1009.1 1008.8 0.0
26/03:00pm 40.9 35.7 3.3 10 20.3 WSW 20 43 11 23 1009.0 1008.7 0.0
26/02:30pm 40.2 34.1 2.8 10 20.0 W 24 32 13 17 1009.7 1009.3 0.0
26/02:11pm 40.9 34.1 3.3 10 20.3 SW 28 46 15 25 1010.0 1009.6 0.0
26/02:00pm 40.9 35.8 3.3 10 20.3 W 19 39 10 21 1010.0 1009.6 0.0
26/01:30pm 40.1 34.7 2.7 10 20.0 WSW 20 41 11 22 1010.6 1010.2 0.0
26/01:00pm 39.8 33.1 3.8 11 19.5 WSW 28 43 15 23 1010.9 1010.5 0.0
26/12:30pm 39.3 33.3 3.4 11 19.3 W 24 39 13 21 1011.2 1010.8 0.0
26/12:00pm 39.7 34.1 3.7 11 19.4 W 22 39 12 21 1011.6 1011.2 0.0
26/11:30am 38.9 34.1 4.4 12 18.7 WSW 19 30 10 16 1011.9 1011.5 0.0
26/11:00am 38.1 34.3 3.8 12 18.4 W 13 20 7 11 1012.2 1011.8 0.0
26/10:30am 37.1 32.4 5.2 14 17.4 NNW 19 24 10 13 1012.4 1012.0 0.0
26/10:00am 35.6 32.4 5.0 15 16.5 W 11 15 6 8 1012.7 1012.3 0.0
26/09:30am 34.1 31.2 4.7 16 15.6 W 9 13 5 7 1012.6 1012.2 0.0
26/09:00am 31.8 29.0 5.3 19 14.1 WNW 9 13 5 7 1012.4 1012.0 0.0
26/08:30am 29.7 27.2 6.4 23 12.4 WNW 9 15 5 8 1012.4 1012.0 0.0
26/08:00am 27.6 25.3 5.8 25 11.4 WNW 7 11 4 6 1012.4 1012.0 0.0
26/07:30am 24.1 22.7 7.3 34 8.8 W 4 7 2 4 1012.1 1011.7 0.0
26/07:00am 20.5 19.6 7.8 44 6.6 W 2 6 1 3 1011.8 1011.4 0.0
26/06:30am 20.6 18.1 6.5 40 7.1 NW 9 15 5 8 1011.8 1011.4 0.0
26/06:00am 21.3 19.2 6.8 39 7.4 WSW 7 11 4 6 1011.6 1011.2 0.0
26/05:30am 21.4 20.5 9.3 46 6.5 W 4 7 2 4 1011.4 1011.0 0.0
26/05:00am 21.6 19.3 5.9 36 7.9 N 7 11 4 6 1011.4 1011.0 0.0
26/04:30am 21.8 19.4 5.3 34 8.2 N 7 11 4 6 1011.6 1011.2 0.0
26/04:00am 21.9 19.4 6.6 37 7.8 NW 9 11 5 6 1011.7 1011.3 0.0
26/03:30am 21.8 19.5 7.6 40 7.4 NW 9 13 5 7 1011.8 1011.4 0.0
26/03:00am 22.5 21.6 7.9 39 7.7 SSW 2 9 1 5 1012.0 1011.6 0.0
26/02:30am 22.9 21.4 8.6 40 7.6 NW 6 7 3 4 1012.2 1011.8 0.0
26/02:00am 23.9 21.5 7.1 34 8.8 NNW 9 11 5 6 1012.4 1012.0 0.0
26/01:30am 24.7 22.0 5.5 29 9.8 N 9 11 5 6 1012.7 1012.3 0.0
26/01:00am 26.7 24.0 5.6 26 10.9 NNW 9 11 5 6 1013.1 1012.7 0.0
26/12:30am 27.0 24.0 5.9 26 11.0 N 11 13 6 7 1013.3 1012.9 0.0
26/12:00am 26.2 23.6 6.3 28 10.4 N 9 13 5 7 1013.4 1013.0 0.0
 
Date/Time
EDT
Temp
°C
App
Temp
°C
Dew
Point
Rel
Hum
%
Delta-T
°C
Wind Press
QNH
hPa
Press
MSL
hPa
Rain
since 9 am
mm
Dir
 
Spd
km/h
Gust
km/h
Spd
kts
Gust
kts
25/11:30pm 27.4 24.7 5.6 25 11.3 N 9 13 5 7 1013.5 1013.1 0.0
25/11:00pm 29.4 26.3 5.5 22 12.6 N 11 13 6 7 1013.7 1013.3 0.0
25/10:30pm 31.2 27.4 5.6 20 13.6 N 15 22 8 12 1013.6 1013.2 0.0
25/10:00pm 31.6 28.0 5.2 19 14.0 N 13 20 7 11 1014.0 1013.6 0.0
25/09:30pm 32.5 29.5 4.3 17 14.8 NE 9 15 5 8 1014.0 1013.6 0.0
25/09:00pm 34.4 31.0 4.0 15 16.0 E 11 19 6 10 1013.4 1013.0 0.0
25/08:35pm 34.6 27.6 4.2 15 16.1 SW 30 65 16 35 1013.4 1013.0 0.0
25/08:30pm 32.9 29.7 2.9 15 15.4 N 9 13 5 7 1012.6 1012.2 0.0
25/08:00pm 33.4 30.1 2.3 14 15.9 NW 9 13 5 7 1011.9 1011.5 0.0
25/07:30pm 34.0 30.2 1.7 13 16.4 N 11 15 6 8 1011.6 1011.2 0.0
25/07:00pm 35.8 32.0 2.0 12 17.4 N 11 19 6 10 1011.6 1011.2 0.0
25/06:30pm 38.2 34.5 2.6 11 18.7 SSW 11 24 6 13 1011.6 1011.2 0.0
25/06:00pm 37.9 33.4 2.4 11 18.6 W 15 39 8 21 1011.5 1011.1 0.0
25/05:30pm 38.7 34.5 1.6 10 19.3 W 13 19 7 10 1011.1 1010.7 0.0
25/05:00pm 39.1 34.7 0.5 9 19.8 WSW 13 22 7 12 1011.1 1010.7 0.0
25/04:30pm 38.1 35.8 2.5 11 18.7 S 4 11 2 6 1011.4 1011.0 0.0
25/04:00pm 39.1 32.1 1.9 10 19.5 WSW 28 48 15 26 1012.0 1011.6 0.0
25/03:56pm 39.8 32.9 2.5 10 19.8 WSW 28 48 15 26 1011.8 1011.4 0.0
25/03:30pm 40.0 33.9 2.6 10 19.9 WSW 24 35 13 19 1012.1 1011.7 0.0
25/03:00pm 39.6 35.0 3.7 11 19.4 SW 17 24 9 13 1012.6 1012.2 0.0
25/02:30pm 40.0 35.8 4.0 11 19.5 WSW 15 26 8 14 1013.1 1012.7 0.0
25/02:00pm 38.3 34.7 2.7 11 18.8 W 11 20 6 11 1013.5 1013.1 0.0
25/01:30pm 38.4 35.5 2.8 11 18.8 E 7 15 4 8 1013.8 1013.4 0.0
25/01:00pm 38.8 35.8 4.3 12 18.7 W 9 15 5 8 1014.4 1014.0 0.0
25/12:30pm 37.8 34.8 2.3 11 18.6 WNW 7 11 4 6 1014.9 1014.5 0.0
25/12:00pm 37.7 34.7 2.2 11 18.5 NNW 7 17 4 9 1015.4 1015.0 0.0
25/11:30am 37.1 32.8 3.0 12 18.0 N 15 22 8 12 1015.9 1015.5 0.0
25/11:00am 37.0 32.5 4.0 13 17.6 NE 17 24 9 13 1016.1 1015.7 0.0
25/10:30am 35.6 30.5 3.0 13 17.0 ENE 19 26 10 14 1016.3 1015.9 0.0
25/10:00am 34.7 30.4 3.3 14 16.4 ENE 15 22 8 12 1016.5 1016.2 0.0
25/09:30am 33.8 28.8 3.6 15 15.8 ENE 19 24 10 13 1016.6 1016.3 0.0
25/09:00am 32.5 28.9 5.1 18 14.5 ENE 13 19 7 10 1016.6 1016.3 0.0
25/08:30am 30.2 27.2 6.1 22 12.8 E 11 13 6 7 1016.4 1016.1 0.0
25/08:00am 28.7 28.1 7.3 26 11.5 CALM 0 0 0 0 1016.1 1015.7 0.0
25/07:30am 24.2 23.9 8.6 37 8.4 CALM 0 0 0 0 1015.7 1015.3 0.0
25/07:00am 21.7 21.7 9.9 47 6.4 CALM 0 0 0 0 1015.3 1014.9 0.0
25/06:30am 21.5 21.0 10.9 51 5.9 NW 4 6 2 3 1015.1 1014.7 0.0
25/06:00am 21.8 21.5 8.7 43 7.0 CALM 0 0 0 0 1014.6 1014.2 0.0
25/05:30am 21.9 22.1 10.7 49 6.2 CALM 0 0 0 0 1014.4 1014.0 0.0
25/05:00am 23.6 23.6 9.9 42 7.5 CALM 0 0 0 0 1014.3 1013.9 0.0
25/04:30am 24.7 25.1 11.3 43 7.6 CALM 0 0 0 0 1014.2 1013.8 0.0
25/04:00am 25.5 25.6 10.1 38 8.6 CALM 0 0 0 0 1014.0 1013.6 0.0
25/03:30am 25.7 25.3 8.2 33 9.4 CALM 0 0 0 0 1013.9 1013.5 0.0
25/03:00am 27.1 26.3 6.5 27 10.9 CALM 0 4 0 2 1014.0 1013.6 0.0
25/02:30am 28.7 26.4 5.5 23 12.1 SSE 7 9 4 5 1014.1 1013.7 0.0
25/02:00am 29.6 26.3 4.3 20 13.0 S 11 13 6 7 1014.3 1013.9 0.0
25/01:30am 31.3 26.6 3.4 17 14.3 SSE 17 20 9 11 1014.5 1014.1 0.0
25/01:21am 33.6 25.1 5.2 17 15.2 SSE 39 63 21 34 1014.4 1014.0 0.0
25/01:00am 30.3 27.7 4.1 19 13.5 S 7 11 4 6 1015.0 1014.6 0.0
25/12:30am 31.2 27.8 4.1 18 14.0 S 11 15 6 8 1015.0 1014.6 0.0
25/12:00am 32.2 27.3 2.3 15 15.1 S 17 26 9 14 1015.6 1015.2 0.0
 
Date/Time
EDT
Temp
°C
App
Temp
°C
Dew
Point
Rel
Hum
%
Delta-T
°C
Wind Press
QNH
hPa
Press
MSL
hPa
Rain
since 9 am
mm
Dir
 
Spd
km/h
Gust
km/h
Spd
kts
Gust
kts
24/11:30pm 32.9 27.4 1.9 14 15.7 S 20 28 11 15 1015.5 1015.1 0.0
24/11:00pm 31.5 26.9 1.8 15 14.8 SSW 15 19 8 10 1015.4 1015.0 0.0
24/10:30pm 31.7 27.5 1.9 15 14.9 SSW 13 17 7 9 1015.4 1015.0 0.0
24/10:00pm 32.3 27.7 1.4 14 15.4 SSW 15 20 8 11 1015.1 1014.7 0.0
24/09:30pm 32.2 27.7 2.3 15 15.1 SSW 15 19 8 10 1014.8 1014.4 0.0
24/09:00pm 31.1 28.1 2.3 16 14.5 SSW 7 9 4 5 1014.5 1014.1 0.0
24/08:30pm 32.4 29.1 2.5 15 15.2 SW 9 11 5 6 1014.1 1013.7 0.0
24/08:00pm 33.0 29.2 2.0 14 15.7 SW 11 13 6 7 1013.8 1013.4 0.0
24/07:30pm 34.4 30.1 0.9 12 16.8 SW 13 17 7 9 1013.3 1012.9 0.0
24/07:00pm 36.2 30.6 1.1 11 17.9 SSW 20 28 11 15 1012.9 1012.5 0.0
24/06:30pm 37.4 31.5 2.0 11 18.4 SW 22 35 12 19 1012.6 1012.2 0.0
24/06:00pm 37.4 31.2 2.0 11 18.4 SW 24 32 13 17 1012.3 1011.9 0.0
24/05:30pm 38.0 32.0 1.1 10 19.0 WSW 22 35 12 19 1011.9 1011.5 0.0
24/05:00pm 38.4 32.1 1.4 10 19.2 SW 24 39 13 21 1012.0 1011.6 0.0
24/04:30pm 38.9 32.0 0.3 9 19.7 WSW 26 43 14 23 1012.0 1011.6 0.0
24/04:00pm 39.0 32.9 0.4 9 19.8 WSW 22 37 12 20 1012.2 1011.8 0.0
24/03:30pm 39.2 32.7 0.6 9 19.8 W 24 37 13 20 1012.5 1012.1 0.0
24/03:00pm 39.1 32.5 1.9 10 19.5 WSW 26 41 14 22 1012.8 1012.4 0.0
24/02:51pm 39.4 32.2 0.7 9 19.9 WSW 28 46 15 25 1012.9 1012.5 0.0
24/02:30pm 39.0 32.8 1.9 10 19.4 W 24 39 13 21 1013.1 1012.7 0.0
24/02:00pm 39.7 33.9 2.4 10 19.7 W 22 33 12 18 1013.4 1013.0 0.0
24/01:30pm 38.1 32.3 2.5 11 18.7 WSW 22 41 12 22 1013.8 1013.4 0.0
24/01:00pm 38.6 31.8 2.9 11 18.9 NNW 28 35 15 19 1013.9 1013.5 0.0
24/12:30pm 38.3 32.2 2.7 11 18.8 NW 24 33 13 18 1014.3 1013.9 0.0
24/12:00pm 37.8 32.1 4.7 13 18.0 NNW 24 37 13 20 1014.7 1014.3 0.0
24/11:30am 37.7 31.9 4.6 13 17.9 NNW 24 39 13 21 1015.1 1014.7 0.0
24/11:00am 36.4 30.3 4.6 14 17.1 NNW 26 37 14 20 1015.6 1015.2 0.0
24/10:30am 35.5 29.8 4.9 15 16.5 N 24 35 13 19 1015.8 1015.4 0.0
24/10:00am 33.5 28.6 5.1 17 15.1 NNW 20 32 11 17 1016.2 1015.8 0.0
24/09:30am 32.3 27.7 6.5 20 14.0 NNW 20 26 11 14 1016.3 1015.9 0.0
24/09:00am 30.4 25.9 7.0 23 12.7 NNW 20 28 11 15 1016.3 1015.9 0.0
24/08:30am 29.2 24.9 7.2 25 11.9 NNW 19 26 10 14 1016.2 1015.8 0.0
24/08:00am 27.5 23.7 7.4 28 10.8 NNW 17 22 9 12 1016.3 1015.9 0.0
24/07:30am 25.2 22.4 8.7 35 8.9 N 13 17 7 9 1016.1 1015.7 0.0
24/07:00am 21.5 19.5 8.7 44 6.8 N 9 11 5 6 1015.8 1015.4 0.0
24/06:30am 21.4 18.5 8.3 43 6.9 N 13 15 7 8 1015.3 1014.9 0.0
24/06:00am 22.0 19.4 7.8 40 7.4 N 11 15 6 8 1014.9 1014.5 0.0
24/05:30am 22.4 19.3 7.4 38 7.8 N 13 15 7 8 1014.6 1014.2 0.0
24/05:00am 23.1 20.1 7.6 37 8.1 N 13 15 7 8 1014.3 1013.9 0.0
24/04:30am 23.7 20.6 7.3 35 8.6 N 13 17 7 9 1014.1 1013.7 0.0
24/04:00am 24.2 20.6 6.9 33 9.0 N 15 17 8 9 1014.1 1013.7 0.0
24/03:30am 23.5 19.7 5.9 32 9.0 N 15 19 8 10 1014.1 1013.7 0.0
24/03:00am 21.7 18.6 7.2 39 7.5 N 13 15 7 8 1014.5 1014.1 0.0
24/02:30am 20.9 17.7 6.8 40 7.2 NNE 13 15 7 8 1014.7 1014.3 0.0
24/02:00am 20.9 17.9 6.1 38 7.5 NE 11 15 6 8 1014.8 1014.4 0.0
24/01:30am 21.0 17.7 6.5 39 7.4 NNE 13 13 7 7 1015.1 1014.7 0.0
24/01:00am 21.7 18.3 6.0 36 7.9 NNE 13 13 7 7 1015.5 1015.1 0.0
24/12:30am 22.3 18.5 5.7 34 8.4 NE 15 15 8 8 1015.6 1015.2 0.0
24/12:00am 21.9 18.7 7.0 38 7.7 NNE 13 13 7 7 1015.6 1015.2 0.0
 
Date/Time
EDT
Temp
°C
App
Temp
°C
Dew
Point
Rel
Hum
%
Delta-T
°C
Wind Press
QNH
hPa
Press
MSL
hPa
Rain
since 9 am
mm
Dir
 
Spd
km/h
Gust
km/h
Spd
kts
Gust
kts
23/11:30pm 22.5 19.5 7.5 38 7.8 NNE 13 15 7 8 1015.7 1015.3 0.0
23/11:00pm 23.4 21.3 9.8 42 7.4 NNE 11 11 6 6 1015.6 1015.2 0.0
23/10:30pm 23.9 21.5 8.7 38 8.2 NNE 11 11 6 6 1015.5 1015.1 0.0
23/10:00pm 25.1 22.8 7.3 32 9.4 NNE 9 11 5 6 1015.4 1015.0 0.0
23/09:30pm 25.2 23.2 8.7 35 8.9 NE 9 11 5 6 1015.0 1014.6 0.0
23/09:00pm 26.1 24.1 10.3 37 8.8 ENE 11 11 6 6 1014.7 1014.3 0.0
23/08:30pm 27.0 24.8 9.4 33 9.7 NE 11 13 6 7 1014.5 1014.1 0.0
23/08:00pm 28.9 27.9 11.0 33 10.3 E 7 9 4 5 1014.2 1013.8 0.0
23/07:30pm 31.8 31.2 7.5 22 13.4 CALM 0 0 0 0 1014.0 1013.6 0.0
23/07:00pm 34.2 31.9 5.7 17 15.4 E 7 9 4 5 1013.8 1013.4 0.0

Other Formats:

Comma delimited format used in spreadsheet applications
http://www.bom.gov.au/fwo/IDN60801/IDN60801.94703.axf

JavaScript Object Notation format (JSON) in row-major order
http://www.bom.gov.au/fwo/IDN60801/IDN60801.94703.json